sensor_id;sensor_type;location;lat;lon;timestamp;P1;durP1;ratioP1;P2;durP2;ratioP2
261;SDS011;114;48.260;10.988;2022-10-04T00:03:30;2.83;;;2.63;;
261;SDS011;114;48.260;10.988;2022-10-04T00:06:00;11.73;;;3.03;;
261;SDS011;114;48.260;10.988;2022-10-04T00:08:30;3.33;;;3.10;;
261;SDS011;114;48.260;10.988;2022-10-04T00:11:31;3.40;;;2.63;;
261;SDS011;114;48.260;10.988;2022-10-04T00:14:21;4.13;;;2.60;;
261;SDS011;114;48.260;10.988;2022-10-04T00:17:10;2.87;;;2.47;;
261;SDS011;114;48.260;10.988;2022-10-04T00:24:34;2.03;;;1.77;;
261;SDS011;114;48.260;10.988;2022-10-04T00:32:28;3.20;;;2.23;;
261;SDS011;114;48.260;10.988;2022-10-04T00:35:03;2.53;;;2.13;;
261;SDS011;114;48.260;10.988;2022-10-04T00:43:07;1.70;;;1.60;;
261;SDS011;114;48.260;10.988;2022-10-04T00:45:44;1.77;;;1.67;;
261;SDS011;114;48.260;10.988;2022-10-04T00:48:33;1.43;;;1.33;;
261;SDS011;114;48.260;10.988;2022-10-04T00:51:13;2.50;;;1.77;;
261;SDS011;114;48.260;10.988;2022-10-04T00:56:51;0.93;;;0.93;;
261;SDS011;114;48.260;10.988;2022-10-04T01:02:16;1.07;;;1.07;;
261;SDS011;114;48.260;10.988;2022-10-04T01:10:36;1.30;;;1.20;;
261;SDS011;114;48.260;10.988;2022-10-04T01:23:18;1.60;;;1.50;;
261;SDS011;114;48.260;10.988;2022-10-04T01:26:05;3.50;;;1.37;;
261;SDS011;114;48.260;10.988;2022-10-04T01:28:55;3.80;;;1.20;;
261;SDS011;114;48.260;10.988;2022-10-04T01:31:28;1.20;;;1.20;;
261;SDS011;114;48.260;10.988;2022-10-04T01:33:56;1.30;;;1.30;;
261;SDS011;114;48.260;10.988;2022-10-04T01:36:23;3.00;;;1.37;;
261;SDS011;114;48.260;10.988;2022-10-04T01:38:49;1.57;;;1.57;;
261;SDS011;114;48.260;10.988;2022-10-04T01:41:16;1.80;;;1.70;;
261;SDS011;114;48.260;10.988;2022-10-04T01:43:46;1.90;;;1.80;;
261;SDS011;114;48.260;10.988;2022-10-04T01:46:22;1.80;;;1.20;;
261;SDS011;114;48.260;10.988;2022-10-04T01:49:11;1.67;;;1.47;;
261;SDS011;114;48.260;10.988;2022-10-04T01:51:42;3.03;;;1.10;;
261;SDS011;114;48.260;10.988;2022-10-04T01:54:32;4.63;;;1.50;;
261;SDS011;114;48.260;10.988;2022-10-04T01:57:02;1.60;;;1.50;;
261;SDS011;114;48.260;10.988;2022-10-04T01:59:31;1.70;;;1.60;;
261;SDS011;114;48.260;10.988;2022-10-04T02:02:09;2.10;;;1.43;;
261;SDS011;114;48.260;10.988;2022-10-04T02:04:51;1.70;;;1.60;;
261;SDS011;114;48.260;10.988;2022-10-04T02:07:19;1.40;;;1.40;;
261;SDS011;114;48.260;10.988;2022-10-04T02:09:47;1.20;;;1.20;;
261;SDS011;114;48.260;10.988;2022-10-04T02:12:19;8.27;;;1.60;;
261;SDS011;114;48.260;10.988;2022-10-04T02:14:49;1.80;;;1.70;;
261;SDS011;114;48.260;10.988;2022-10-04T02:17:21;2.20;;;1.83;;
261;SDS011;114;48.260;10.988;2022-10-04T02:19:50;2.27;;;2.07;;
261;SDS011;114;48.260;10.988;2022-10-04T02:22:16;4.33;;;1.83;;
261;SDS011;114;48.260;10.988;2022-10-04T02:24:44;2.23;;;2.10;;
261;SDS011;114;48.260;10.988;2022-10-04T02:27:12;4.23;;;1.90;;
261;SDS011;114;48.260;10.988;2022-10-04T02:29:38;1.83;;;1.73;;
261;SDS011;114;48.260;10.988;2022-10-04T02:32:05;11.47;;;2.07;;
261;SDS011;114;48.260;10.988;2022-10-04T02:34:51;3.10;;;2.13;;
261;SDS011;114;48.260;10.988;2022-10-04T02:37:19;6.47;;;2.50;;
261;SDS011;114;48.260;10.988;2022-10-04T02:40:02;2.30;;;2.20;;
261;SDS011;114;48.260;10.988;2022-10-04T02:42:45;3.83;;;1.87;;
261;SDS011;114;48.260;10.988;2022-10-04T02:45:17;4.13;;;2.17;;
261;SDS011;114;48.260;10.988;2022-10-04T02:47:50;8.10;;;2.50;;
261;SDS011;114;48.260;10.988;2022-10-04T02:50:29;2.13;;;2.03;;
261;SDS011;114;48.260;10.988;2022-10-04T02:55:40;2.30;;;2.10;;
261;SDS011;114;48.260;10.988;2022-10-04T02:58:09;3.73;;;2.10;;
261;SDS011;114;48.260;10.988;2022-10-04T03:00:48;2.17;;;1.97;;
261;SDS011;114;48.260;10.988;2022-10-04T03:06:06;3.77;;;2.17;;
261;SDS011;114;48.260;10.988;2022-10-04T03:11:09;3.33;;;2.50;;
261;SDS011;114;48.260;10.988;2022-10-04T03:13:38;2.60;;;2.47;;
261;SDS011;114;48.260;10.988;2022-10-04T03:16:08;4.53;;;2.03;;
261;SDS011;114;48.260;10.988;2022-10-04T03:18:34;3.07;;;2.10;;
261;SDS011;114;48.260;10.988;2022-10-04T03:21:02;2.30;;;2.00;;
261;SDS011;114;48.260;10.988;2022-10-04T03:23:32;2.23;;;2.00;;
261;SDS011;114;48.260;10.988;2022-10-04T03:28:27;4.67;;;2.07;;
261;SDS011;114;48.260;10.988;2022-10-04T03:30:53;5.50;;;2.10;;
261;SDS011;114;48.260;10.988;2022-10-04T03:33:23;2.60;;;2.13;;
261;SDS011;114;48.260;10.988;2022-10-04T03:35:51;2.00;;;1.87;;
261;SDS011;114;48.260;10.988;2022-10-04T03:38:20;1.93;;;1.83;;
261;SDS011;114;48.260;10.988;2022-10-04T03:40:57;1.97;;;1.87;;
261;SDS011;114;48.260;10.988;2022-10-04T03:43:29;3.00;;;1.83;;
261;SDS011;114;48.260;10.988;2022-10-04T03:45:57;1.80;;;1.60;;
261;SDS011;114;48.260;10.988;2022-10-04T03:48:26;1.80;;;1.37;;
261;SDS011;114;48.260;10.988;2022-10-04T03:50:55;1.80;;;1.60;;
261;SDS011;114;48.260;10.988;2022-10-04T03:53:30;1.67;;;1.57;;
261;SDS011;114;48.260;10.988;2022-10-04T03:56:08;2.67;;;1.93;;
261;SDS011;114;48.260;10.988;2022-10-04T03:58:47;8.83;;;1.40;;
261;SDS011;114;48.260;10.988;2022-10-04T04:04:47;4.67;;;1.20;;
261;SDS011;114;48.260;10.988;2022-10-04T04:07:28;1.37;;;1.37;;
261;SDS011;114;48.260;10.988;2022-10-04T04:12:35;1.77;;;1.50;;
261;SDS011;114;48.260;10.988;2022-10-04T04:15:02;1.40;;;1.30;;
261;SDS011;114;48.260;10.988;2022-10-04T04:18:13;1.13;;;1.13;;
261;SDS011;114;48.260;10.988;2022-10-04T04:20:24;1.17;;;1.10;;
261;SDS011;114;48.260;10.988;2022-10-04T04:25:43;4.40;;;1.73;;
261;SDS011;114;48.260;10.988;2022-10-04T04:28:25;1.77;;;1.63;;
261;SDS011;114;48.260;10.988;2022-10-04T04:30:58;1.83;;;1.73;;
261;SDS011;114;48.260;10.988;2022-10-04T04:33:44;3.80;;;2.13;;
261;SDS011;114;48.260;10.988;2022-10-04T04:36:18;9.47;;;7.07;;
261;SDS011;114;48.260;10.988;2022-10-04T04:38:44;11.13;;;8.23;;
261;SDS011;114;48.260;10.988;2022-10-04T04:41:29;10.30;;;7.40;;
261;SDS011;114;48.260;10.988;2022-10-04T04:43:59;6.43;;;4.90;;
261;SDS011;114;48.260;10.988;2022-10-04T04:46:26;125.90;;;62.93;;
261;SDS011;114;48.260;10.988;2022-10-04T04:48:56;73.83;;;40.07;;
261;SDS011;114;48.260;10.988;2022-10-04T04:51:26;56.43;;;34.70;;
261;SDS011;114;48.260;10.988;2022-10-04T04:53:53;34.17;;;21.60;;
261;SDS011;114;48.260;10.988;2022-10-04T04:56:27;11.10;;;7.80;;
261;SDS011;114;48.260;10.988;2022-10-04T04:58:54;6.87;;;3.50;;
261;SDS011;114;48.260;10.988;2022-10-04T05:04:32;4.23;;;3.00;;
261;SDS011;114;48.260;10.988;2022-10-04T05:07:01;2.87;;;2.50;;
261;SDS011;114;48.260;10.988;2022-10-04T05:09:39;9.83;;;3.17;;
261;SDS011;114;48.260;10.988;2022-10-04T05:12:19;5.70;;;3.10;;
261;SDS011;114;48.260;10.988;2022-10-04T05:14:50;3.07;;;2.83;;
261;SDS011;114;48.260;10.988;2022-10-04T05:17:18;2.60;;;2.40;;
261;SDS011;114;48.260;10.988;2022-10-04T05:19:47;1.90;;;1.80;;
261;SDS011;114;48.260;10.988;2022-10-04T05:22:15;5.50;;;2.10;;
261;SDS011;114;48.260;10.988;2022-10-04T05:24:47;2.33;;;2.20;;
261;SDS011;114;48.260;10.988;2022-10-04T05:27:21;2.40;;;2.27;;
261;SDS011;114;48.260;10.988;2022-10-04T05:29:58;3.17;;;2.20;;
261;SDS011;114;48.260;10.988;2022-10-04T05:32:32;2.13;;;1.97;;
261;SDS011;114;48.260;10.988;2022-10-04T05:35:18;2.07;;;1.97;;
261;SDS011;114;48.260;10.988;2022-10-04T05:43:31;2.70;;;2.60;;
261;SDS011;114;48.260;10.988;2022-10-04T05:46:11;2.50;;;2.40;;
261;SDS011;114;48.260;10.988;2022-10-04T05:48:44;8.90;;;7.73;;
261;SDS011;114;48.260;10.988;2022-10-04T05:51:22;4.60;;;3.67;;
261;SDS011;114;48.260;10.988;2022-10-04T05:53:51;3.47;;;3.17;;
261;SDS011;114;48.260;10.988;2022-10-04T05:56:34;8.10;;;3.10;;
261;SDS011;114;48.260;10.988;2022-10-04T06:13:00;13.30;;;4.93;;
261;SDS011;114;48.260;10.988;2022-10-04T06:15:51;7.20;;;3.87;;
261;SDS011;114;48.260;10.988;2022-10-04T06:21:17;8.47;;;4.30;;
261;SDS011;114;48.260;10.988;2022-10-04T06:24:09;7.00;;;4.07;;
261;SDS011;114;48.260;10.988;2022-10-04T06:26:39;5.63;;;4.60;;
261;SDS011;114;48.260;10.988;2022-10-04T06:29:22;6.27;;;4.30;;
261;SDS011;114;48.260;10.988;2022-10-04T06:43:26;11.97;;;3.77;;
261;SDS011;114;48.260;10.988;2022-10-04T06:49:31;6.30;;;3.93;;
261;SDS011;114;48.260;10.988;2022-10-04T07:00:34;5.60;;;3.70;;
261;SDS011;114;48.260;10.988;2022-10-04T07:03:23;13.73;;;3.30;;
261;SDS011;114;48.260;10.988;2022-10-04T07:11:14;7.07;;;4.07;;
261;SDS011;114;48.260;10.988;2022-10-04T07:19:37;3.57;;;2.90;;
261;SDS011;114;48.260;10.988;2022-10-04T07:27:54;3.77;;;3.37;;
261;SDS011;114;48.260;10.988;2022-10-04T07:31:03;10.10;;;2.30;;
261;SDS011;114;48.260;10.988;2022-10-04T07:33:40;3.57;;;3.00;;
261;SDS011;114;48.260;10.988;2022-10-04T07:36:18;3.37;;;3.07;;
261;SDS011;114;48.260;10.988;2022-10-04T07:38:52;10.80;;;2.67;;
261;SDS011;114;48.260;10.988;2022-10-04T07:41:25;4.10;;;2.70;;
261;SDS011;114;48.260;10.988;2022-10-04T07:47:00;3.03;;;2.67;;
261;SDS011;114;48.260;10.988;2022-10-04T07:49:52;5.83;;;3.10;;
261;SDS011;114;48.260;10.988;2022-10-04T08:05:37;6.93;;;3.13;;
261;SDS011;114;48.260;10.988;2022-10-04T08:13:25;7.73;;;3.03;;
261;SDS011;114;48.260;10.988;2022-10-04T08:16:09;7.00;;;3.53;;
261;SDS011;114;48.260;10.988;2022-10-04T08:21:28;5.47;;;2.80;;
261;SDS011;114;48.260;10.988;2022-10-04T08:24:14;5.07;;;3.00;;
261;SDS011;114;48.260;10.988;2022-10-04T08:26:55;4.73;;;2.97;;
261;SDS011;114;48.260;10.988;2022-10-04T08:32:31;8.77;;;3.53;;
261;SDS011;114;48.260;10.988;2022-10-04T08:38:05;8.53;;;4.33;;
261;SDS011;114;48.260;10.988;2022-10-04T08:40:51;6.90;;;3.40;;
261;SDS011;114;48.260;10.988;2022-10-04T09:08:21;9.27;;;4.47;;
261;SDS011;114;48.260;10.988;2022-10-04T09:22:47;10.53;;;5.60;;
261;SDS011;114;48.260;10.988;2022-10-04T09:47:44;5.77;;;2.67;;
261;SDS011;114;48.260;10.988;2022-10-04T09:58:30;4.43;;;3.37;;
261;SDS011;114;48.260;10.988;2022-10-04T10:01:09;12.47;;;3.33;;
261;SDS011;114;48.260;10.988;2022-10-04T10:12:33;6.60;;;2.77;;
261;SDS011;114;48.260;10.988;2022-10-04T10:30:12;5.70;;;3.53;;
261;SDS011;114;48.260;10.988;2022-10-04T10:32:46;7.57;;;3.67;;
261;SDS011;114;48.260;10.988;2022-10-04T10:54:43;6.20;;;2.47;;
261;SDS011;114;48.260;10.988;2022-10-04T11:12:14;4.70;;;1.67;;
261;SDS011;114;48.260;10.988;2022-10-04T11:21:05;5.67;;;2.10;;
261;SDS011;114;48.260;10.988;2022-10-04T12:00:26;4.23;;;2.00;;
261;SDS011;114;48.260;10.988;2022-10-04T12:31:43;12.67;;;2.77;;
261;SDS011;114;48.260;10.988;2022-10-04T12:34:24;6.70;;;2.63;;
261;SDS011;114;48.260;10.988;2022-10-04T12:51:48;4.13;;;2.67;;
261;SDS011;114;48.260;10.988;2022-10-04T12:55:42;3.10;;;2.27;;
261;SDS011;114;48.260;10.988;2022-10-04T12:58:02;4.20;;;2.93;;
261;SDS011;114;48.260;10.988;2022-10-04T13:00:45;9.43;;;2.90;;
261;SDS011;114;48.260;10.988;2022-10-04T13:05:51;6.73;;;3.07;;
261;SDS011;114;48.260;10.988;2022-10-04T13:08:46;5.33;;;3.30;;
261;SDS011;114;48.260;10.988;2022-10-04T13:16:57;3.23;;;2.43;;
261;SDS011;114;48.260;10.988;2022-10-04T13:19:53;7.23;;;2.80;;
261;SDS011;114;48.260;10.988;2022-10-04T13:25:47;7.13;;;3.93;;
261;SDS011;114;48.260;10.988;2022-10-04T13:36:28;4.13;;;3.03;;
261;SDS011;114;48.260;10.988;2022-10-04T13:44:10;5.00;;;2.83;;
261;SDS011;114;48.260;10.988;2022-10-04T13:52:28;3.45;;;2.45;;
261;SDS011;114;48.260;10.988;2022-10-04T14:01:17;2.63;;;1.77;;
261;SDS011;114;48.260;10.988;2022-10-04T14:11:55;3.15;;;1.90;;
261;SDS011;114;48.260;10.988;2022-10-04T14:23:33;3.75;;;1.50;;
261;SDS011;114;48.260;10.988;2022-10-04T14:27:01;1.75;;;1.63;;
261;SDS011;114;48.260;10.988;2022-10-04T14:35:22;5.27;;;1.87;;
261;SDS011;114;48.260;10.988;2022-10-04T14:46:17;5.83;;;2.30;;
261;SDS011;114;48.260;10.988;2022-10-04T15:03:09;2.60;;;1.90;;
261;SDS011;114;48.260;10.988;2022-10-04T15:05:35;4.97;;;2.30;;
261;SDS011;114;48.260;10.988;2022-10-04T15:11:11;12.50;;;3.70;;
261;SDS011;114;48.260;10.988;2022-10-04T15:32:38;2.67;;;1.90;;
261;SDS011;114;48.260;10.988;2022-10-04T15:35:34;4.83;;;2.30;;
261;SDS011;114;48.260;10.988;2022-10-04T15:43:43;9.10;;;2.50;;
261;SDS011;114;48.260;10.988;2022-10-04T15:46:37;4.53;;;2.63;;
261;SDS011;114;48.260;10.988;2022-10-04T16:02:53;2.33;;;2.07;;
261;SDS011;114;48.260;10.988;2022-10-04T16:08:10;3.27;;;1.87;;
261;SDS011;114;48.260;10.988;2022-10-04T16:16:32;5.10;;;1.83;;
261;SDS011;114;48.260;10.988;2022-10-04T16:19:31;14.13;;;2.13;;
261;SDS011;114;48.260;10.988;2022-10-04T16:33:54;6.57;;;2.20;;
261;SDS011;114;48.260;10.988;2022-10-04T16:37:17;2.10;;;1.73;;
261;SDS011;114;48.260;10.988;2022-10-04T16:39:30;3.20;;;1.77;;
261;SDS011;114;48.260;10.988;2022-10-04T16:42:30;2.77;;;1.50;;
261;SDS011;114;48.260;10.988;2022-10-04T16:45:30;3.17;;;2.33;;
261;SDS011;114;48.260;10.988;2022-10-04T16:56:20;9.73;;;2.17;;
261;SDS011;114;48.260;10.988;2022-10-04T17:03:54;6.90;;;2.17;;
261;SDS011;114;48.260;10.988;2022-10-04T17:09:16;2.40;;;2.20;;
261;SDS011;114;48.260;10.988;2022-10-04T17:11:59;2.60;;;2.30;;
261;SDS011;114;48.260;10.988;2022-10-04T17:28:56;2.40;;;2.20;;
261;SDS011;114;48.260;10.988;2022-10-04T17:31:37;5.83;;;2.40;;
261;SDS011;114;48.260;10.988;2022-10-04T17:34:23;8.20;;;2.40;;
261;SDS011;114;48.260;10.988;2022-10-04T17:42:28;5.70;;;4.33;;
261;SDS011;114;48.260;10.988;2022-10-04T17:48:04;3.20;;;2.90;;
261;SDS011;114;48.260;10.988;2022-10-04T17:54:08;5.43;;;2.57;;
261;SDS011;114;48.260;10.988;2022-10-04T17:59:29;2.53;;;2.43;;
261;SDS011;114;48.260;10.988;2022-10-04T18:02:03;5.67;;;2.67;;
261;SDS011;114;48.260;10.988;2022-10-04T18:04:38;7.30;;;2.60;;
261;SDS011;114;48.260;10.988;2022-10-04T18:07:24;3.00;;;2.80;;
261;SDS011;114;48.260;10.988;2022-10-04T18:10:22;5.50;;;2.63;;
261;SDS011;114;48.260;10.988;2022-10-04T18:12:55;4.17;;;2.63;;
261;SDS011;114;48.260;10.988;2022-10-04T18:15:47;3.10;;;2.83;;
261;SDS011;114;48.260;10.988;2022-10-04T18:18:22;4.43;;;3.87;;
261;SDS011;114;48.260;10.988;2022-10-04T18:23:27;4.27;;;3.30;;
261;SDS011;114;48.260;10.988;2022-10-04T18:26:09;10.90;;;4.27;;
261;SDS011;114;48.260;10.988;2022-10-04T18:28:42;4.40;;;3.30;;
261;SDS011;114;48.260;10.988;2022-10-04T18:31:27;5.67;;;3.43;;
261;SDS011;114;48.260;10.988;2022-10-04T18:37:28;4.83;;;2.70;;
261;SDS011;114;48.260;10.988;2022-10-04T18:39:46;6.13;;;2.40;;
261;SDS011;114;48.260;10.988;2022-10-04T18:42:33;3.93;;;2.57;;
261;SDS011;114;48.260;10.988;2022-10-04T18:47:52;3.13;;;2.90;;
261;SDS011;114;48.260;10.988;2022-10-04T18:55:37;5.37;;;2.17;;
261;SDS011;114;48.260;10.988;2022-10-04T19:04:40;2.17;;;2.00;;
261;SDS011;114;48.260;10.988;2022-10-04T19:07:24;11.60;;;3.20;;
261;SDS011;114;48.260;10.988;2022-10-04T19:10:02;4.30;;;3.50;;
261;SDS011;114;48.260;10.988;2022-10-04T19:21:13;3.10;;;2.50;;
261;SDS011;114;48.260;10.988;2022-10-04T19:26:37;4.80;;;3.67;;
261;SDS011;114;48.260;10.988;2022-10-04T19:31:57;4.60;;;4.10;;
261;SDS011;114;48.260;10.988;2022-10-04T19:42:59;2.30;;;2.00;;
261;SDS011;114;48.260;10.988;2022-10-04T19:48:26;7.83;;;4.63;;
261;SDS011;114;48.260;10.988;2022-10-04T19:51:01;4.63;;;4.23;;
261;SDS011;114;48.260;10.988;2022-10-04T19:53:40;5.20;;;4.70;;
261;SDS011;114;48.260;10.988;2022-10-04T19:56:17;5.23;;;4.80;;
261;SDS011;114;48.260;10.988;2022-10-04T19:58:51;5.50;;;5.10;;
261;SDS011;114;48.260;10.988;2022-10-04T20:01:20;6.57;;;5.97;;
261;SDS011;114;48.260;10.988;2022-10-04T20:03:51;10.13;;;7.20;;
261;SDS011;114;48.260;10.988;2022-10-04T20:06:51;11.20;;;5.97;;
261;SDS011;114;48.260;10.988;2022-10-04T20:09:29;8.50;;;5.77;;
261;SDS011;114;48.260;10.988;2022-10-04T20:12:01;4.80;;;3.80;;
261;SDS011;114;48.260;10.988;2022-10-04T20:27:06;4.60;;;4.30;;
261;SDS011;114;48.260;10.988;2022-10-04T20:29:59;4.30;;;3.90;;
261;SDS011;114;48.260;10.988;2022-10-04T20:35:02;4.90;;;3.50;;
261;SDS011;114;48.260;10.988;2022-10-04T20:43:51;3.80;;;3.50;;
261;SDS011;114;48.260;10.988;2022-10-04T20:45:44;3.77;;;3.57;;
261;SDS011;114;48.260;10.988;2022-10-04T20:48:22;8.23;;;4.30;;
261;SDS011;114;48.260;10.988;2022-10-04T20:50:50;10.70;;;3.47;;
261;SDS011;114;48.260;10.988;2022-10-04T20:53:26;4.97;;;4.57;;
261;SDS011;114;48.260;10.988;2022-10-04T20:58:55;7.43;;;4.97;;
261;SDS011;114;48.260;10.988;2022-10-04T21:01:32;5.50;;;4.10;;
261;SDS011;114;48.260;10.988;2022-10-04T21:04:19;4.67;;;4.33;;
261;SDS011;114;48.260;10.988;2022-10-04T21:06:58;4.67;;;4.33;;
261;SDS011;114;48.260;10.988;2022-10-04T21:09:32;6.03;;;5.43;;
261;SDS011;114;48.260;10.988;2022-10-04T21:12:02;10.00;;;6.27;;
261;SDS011;114;48.260;10.988;2022-10-04T21:14:31;7.00;;;6.30;;
261;SDS011;114;48.260;10.988;2022-10-04T21:17:02;6.90;;;5.80;;
261;SDS011;114;48.260;10.988;2022-10-04T21:24:40;11.27;;;8.17;;
261;SDS011;114;48.260;10.988;2022-10-04T21:30:12;16.40;;;7.10;;
261;SDS011;114;48.260;10.988;2022-10-04T21:32:39;8.80;;;7.03;;
261;SDS011;114;48.260;10.988;2022-10-04T21:35:06;10.83;;;6.53;;
261;SDS011;114;48.260;10.988;2022-10-04T21:37:32;8.50;;;7.10;;
261;SDS011;114;48.260;10.988;2022-10-04T21:39:59;8.47;;;5.83;;
261;SDS011;114;48.260;10.988;2022-10-04T21:42:26;8.37;;;6.03;;
261;SDS011;114;48.260;10.988;2022-10-04T21:44:52;7.33;;;6.13;;
261;SDS011;114;48.260;10.988;2022-10-04T21:47:18;8.87;;;6.87;;
261;SDS011;114;48.260;10.988;2022-10-04T21:49:46;11.97;;;7.23;;
261;SDS011;114;48.260;10.988;2022-10-04T21:52:12;8.83;;;5.87;;
261;SDS011;114;48.260;10.988;2022-10-04T21:54:38;6.97;;;6.23;;
261;SDS011;114;48.260;10.988;2022-10-04T21:57:05;6.60;;;5.90;;
261;SDS011;114;48.260;10.988;2022-10-04T21:59:31;8.53;;;7.27;;
261;SDS011;114;48.260;10.988;2022-10-04T22:01:57;8.37;;;7.47;;
261;SDS011;114;48.260;10.988;2022-10-04T22:04:22;10.60;;;7.10;;
261;SDS011;114;48.260;10.988;2022-10-04T22:06:48;6.80;;;6.30;;
261;SDS011;114;48.260;10.988;2022-10-04T22:09:14;10.03;;;7.00;;
261;SDS011;114;48.260;10.988;2022-10-04T22:11:40;6.83;;;6.10;;
261;SDS011;114;48.260;10.988;2022-10-04T22:14:05;6.30;;;5.43;;
261;SDS011;114;48.260;10.988;2022-10-04T22:16:31;9.50;;;5.67;;
261;SDS011;114;48.260;10.988;2022-10-04T22:18:57;7.47;;;5.87;;
261;SDS011;114;48.260;10.988;2022-10-04T22:21:22;7.00;;;6.03;;
261;SDS011;114;48.260;10.988;2022-10-04T22:23:48;7.40;;;6.60;;
261;SDS011;114;48.260;10.988;2022-10-04T22:26:16;10.40;;;6.90;;
261;SDS011;114;48.260;10.988;2022-10-04T22:28:44;6.87;;;6.23;;
261;SDS011;114;48.260;10.988;2022-10-04T22:31:12;8.00;;;5.73;;
261;SDS011;114;48.260;10.988;2022-10-04T22:33:40;6.57;;;5.97;;
261;SDS011;114;48.260;10.988;2022-10-04T22:36:20;5.80;;;5.37;;
261;SDS011;114;48.260;10.988;2022-10-04T22:39:11;7.27;;;5.67;;
261;SDS011;114;48.260;10.988;2022-10-04T22:41:41;9.30;;;5.93;;
261;SDS011;114;48.260;10.988;2022-10-04T22:46:53;6.20;;;5.63;;
261;SDS011;114;48.260;10.988;2022-10-04T22:49:23;7.30;;;5.60;;
261;SDS011;114;48.260;10.988;2022-10-04T22:51:53;7.07;;;6.37;;
261;SDS011;114;48.260;10.988;2022-10-04T22:54:21;7.20;;;6.40;;
261;SDS011;114;48.260;10.988;2022-10-04T22:56:50;8.10;;;6.60;;
261;SDS011;114;48.260;10.988;2022-10-04T22:59:17;6.60;;;5.90;;
261;SDS011;114;48.260;10.988;2022-10-04T23:01:44;6.77;;;5.80;;
261;SDS011;114;48.260;10.988;2022-10-04T23:04:20;6.03;;;5.40;;
261;SDS011;114;48.260;10.988;2022-10-04T23:06:47;6.03;;;5.40;;
261;SDS011;114;48.260;10.988;2022-10-04T23:09:13;7.40;;;5.30;;
261;SDS011;114;48.260;10.988;2022-10-04T23:11:39;4.83;;;4.43;;
261;SDS011;114;48.260;10.988;2022-10-04T23:14:05;5.00;;;4.60;;
261;SDS011;114;48.260;10.988;2022-10-04T23:16:31;5.23;;;4.70;;
261;SDS011;114;48.260;10.988;2022-10-04T23:19:11;6.43;;;4.20;;
261;SDS011;114;48.260;10.988;2022-10-04T23:21:39;4.40;;;4.00;;
261;SDS011;114;48.260;10.988;2022-10-04T23:26:39;5.73;;;4.93;;
261;SDS011;114;48.260;10.988;2022-10-04T23:31:43;5.30;;;4.90;;
261;SDS011;114;48.260;10.988;2022-10-04T23:34:53;4.80;;;4.47;;
261;SDS011;114;48.260;10.988;2022-10-04T23:37:01;5.60;;;5.10;;
261;SDS011;114;48.260;10.988;2022-10-04T23:39:28;6.20;;;5.47;;
261;SDS011;114;48.260;10.988;2022-10-04T23:41:56;5.40;;;4.80;;
261;SDS011;114;48.260;10.988;2022-10-04T23:44:22;5.10;;;4.80;;
261;SDS011;114;48.260;10.988;2022-10-04T23:46:54;6.27;;;4.80;;
261;SDS011;114;48.260;10.988;2022-10-04T23:49:20;4.60;;;4.37;;
261;SDS011;114;48.260;10.988;2022-10-04T23:51:46;4.37;;;4.13;;
261;SDS011;114;48.260;10.988;2022-10-04T23:54:17;4.63;;;4.33;;
261;SDS011;114;48.260;10.988;2022-10-04T23:56:44;5.50;;;4.70;;
261;SDS011;114;48.260;10.988;2022-10-04T23:59:15;5.47;;;5.07;;
